In Rescue
 
Open Full Screen Window  High Contrast Mode
Wind Gusting 00 knots
09
August 09, 2020 6:29 PM EDT
Weather Information
Wind Direction
  220 °
Wind Speed
  09 kt (10 mph)
Wind Gust
  00 kt (0 mph)
Altimeter
29.98 in
Visibility
10 SM
Temperature
30° C
86° F
Dewpoint
20° C
68° F
Humidity
55%
Sky Condition
Clear
VFR

METAR KHYX 092229Z AUTO 22009KT 10SM CLR 30/20 A2998 RMK AO2

FAA Disclaimer: The data displayed is for advisory purposes only and is not to be used for flight planning or operations.